La Push, WA

8:13 PM PST on December 25, 2014 (GMT -0800)
Quillayute | Change Station
CLOSE
Current Station
Airport
Location: Quillayute,
Elevation: 194 ft
Nearby Weather Stations

Elev 194 ft 47.94 °N, 124.56 °W | Updated 6 minutes ago

Overcast
Overcast
44 °F
Feels Like 44 °F
N
0
Wind Variable Wind from North

Today
High -- | Low -- °F
--% Chance of Precip.
Yesterday
High -- | Low -- °F
Precip. -- in
8:06 AM 4:30 PM
Waxing Crescent, 22% visible
Pressure 30.24 in
Visibility 9.0 miles
Clouds Mostly Cloudy 2700 ft
Overcast 3600 ft
Dew Point 43 °F
Humidity 96%
Rainfall 0.00 in
Snow Depth Not available.
UV 0 out of 12
Pollen .50 out of 12
Air Quality Not available.
Flu Activity Not available.
SPECI KUIL 260407Z AUTO 00000KT 9SM BKN027 OVC036 07/06 A3024 RMK AO2 T00670061 $

More Conditions Fewer Conditions

Pressure 30.24 in
Visibility 9.0 miles
Clouds Mostly Cloudy 2700 ft
Overcast 3600 ft
Dew Point 43 °F
Humidity 96%
Rainfall 0.00 in
Snow Depth Not available.
UV 0 out of 12
Pollen .50 out of 12
Air Quality Not available.
Flu Activity Not available.
SPECI KUIL 260407Z AUTO 00000KT 9SM BKN027 OVC036 07/06 A3024 RMK AO2 T00670061 $

More Conditions Fewer Conditions

10-Day Weather Forecast

Almanac

Astronomy

Dec. 25, 2014 Rise Set
Actual Time
Civil Twilight
Nautical Twilight
Astronomical Twilight
Moon
Length of Visible Light
Length of Day
Tomorrow will be .
, % of the Moon is Illuminated

Today's Extremes

State Highs State Lows

Community

WunderPhotos

Upload Photos

1,780,536 photos uploaded!

WunderBlogs® & News

Nearby

Air Quality

  Air Quality AQ Index Pollutant
Not available.

Snow Depth

Station Depth Elevation

Earthquake Activity

City Distance Mag. Time & Date
Minimum magnitude displayed is 2.5.

Coastal Water Temperatures

Place Temperature

Nearby Weather Stations